Time;durP1;ratioP1;P1;durP2;ratioP2;P2;SDS_P1;SDS_P2;PMS_P1;PMS_P2;Temp;Humidity;BMP_temperature;BMP_pressure;BME280_temperature;BME280_humidity;BME280_pressure;Samples;Min_cycle;Max_cycle;Signal;HPM_P1;HPM_P2
2022/03/16 00:02:22;;;;;;;117.82;53.88;;;7.50;99.90;;;;;;6091127;23;20042;-84
2022/03/16 00:05:10;;;;;;;113.57;53.45;;;7.40;99.90;;;;;;6089970;23;20092;-84
2022/03/16 00:07:57;;;;;;;118.68;54.38;;;7.40;99.90;;;;;;6091187;23;20101;-84
2022/03/16 00:10:46;;;;;;;120.13;53.50;;;7.30;99.90;;;;;;6091636;23;20041;-85
2022/03/16 00:13:33;;;;;;;120.25;53.60;;;7.20;99.90;;;;;;6091001;23;20034;-84
2022/03/16 00:16:21;;;;;;;136.88;55.45;;;7.20;99.90;;;;;;6090413;23;20054;-87
2022/03/16 00:19:11;;;;;;;146.77;58.42;;;7.20;99.90;;;;;;6090903;23;20121;-87
2022/03/16 00:21:59;;;;;;;151.27;59.75;;;7.20;99.90;;;;;;6090906;23;20022;-85
2022/03/16 00:24:46;;;;;;;131.82;56.95;;;7.10;99.90;;;;;;6088818;23;20037;-84
2022/03/16 00:27:34;;;;;;;134.45;59.22;;;7.10;99.90;;;;;;6095585;23;20026;-87
2022/03/16 00:30:21;;;;;;;161.07;59.05;;;7.20;99.90;;;;;;6102602;23;20060;-85
2022/03/16 00:33:08;;;;;;;135.15;56.47;;;7.10;99.90;;;;;;6099312;23;20049;-87
2022/03/16 00:35:56;;;;;;;172.27;59.05;;;7.10;99.90;;;;;;6091913;23;20030;-85
2022/03/16 00:38:43;;;;;;;137.63;55.38;;;7.10;99.90;;;;;;6092023;23;20088;-85
2022/03/16 00:41:31;;;;;;;128.80;50.42;;;7.00;99.90;;;;;;6100145;23;20080;-85
2022/03/16 00:44:18;;;;;;;142.63;50.08;;;7.00;99.90;;;;;;6098905;23;20034;-84
2022/03/16 00:47:06;;;;;;;123.82;45.15;;;7.00;99.90;;;;;;6103488;23;20030;-85
2022/03/16 00:49:54;;;;;;;136.63;49.58;;;7.00;99.90;;;;;;6105032;23;20026;-85
2022/03/16 00:52:41;;;;;;;142.75;49.05;;;7.00;99.90;;;;;;6093502;23;20101;-86
2022/03/16 00:55:28;;;;;;;130.00;46.33;;;6.90;99.90;;;;;;6094017;23;20033;-85
2022/03/16 00:58:16;;;;;;;135.27;47.53;;;6.80;99.90;;;;;;6091685;23;20030;-84
2022/03/16 01:01:07;;;;;;;143.82;45.15;;;6.90;99.90;;;;;;6089796;23;20041;-84
2022/03/16 01:03:56;;;;;;;144.02;49.38;;;6.80;99.90;;;;;;6089838;23;20030;-86
2022/03/16 01:06:43;;;;;;;144.90;49.35;;;6.80;99.90;;;;;;6089528;23;20030;-85
2022/03/16 01:09:31;;;;;;;152.68;50.72;;;6.70;99.90;;;;;;6089155;23;20088;-84
2022/03/16 01:12:18;;;;;;;157.27;51.30;;;6.70;99.90;;;;;;6088087;23;20030;-85
2022/03/16 01:15:06;;;;;;;137.48;50.55;;;6.70;99.90;;;;;;6089396;23;20022;-85
2022/03/16 01:17:53;;;;;;;156.32;51.17;;;6.70;99.90;;;;;;6088759;23;20092;-85
2022/03/16 01:20:42;;;;;;;142.82;48.25;;;6.60;99.90;;;;;;6088527;23;20433;-86
2022/03/16 01:23:33;;;;;;;153.95;51.22;;;6.60;99.90;;;;;;6089166;23;20092;-85
2022/03/16 01:26:20;;;;;;;153.95;53.25;;;6.60;99.90;;;;;;6090837;23;20117;-85
2022/03/16 01:29:07;;;;;;;173.55;56.78;;;6.60;99.90;;;;;;6090816;23;20049;-85
2022/03/16 01:31:55;;;;;;;174.77;54.75;;;6.60;99.90;;;;;;6088024;23;20030;-85
2022/03/16 01:34:42;;;;;;;168.85;56.80;;;6.60;99.90;;;;;;6088476;23;20144;-85
2022/03/16 01:37:32;;;;;;;180.98;56.10;;;6.60;99.90;;;;;;6090151;23;20034;-85
2022/03/16 01:40:20;;;;;;;147.15;52.40;;;6.60;99.90;;;;;;6088775;23;20030;-86
2022/03/16 01:43:07;;;;;;;156.20;51.70;;;6.60;99.90;;;;;;6088000;23;20063;-87
2022/03/16 01:45:54;;;;;;;145.50;48.33;;;6.60;99.90;;;;;;6091449;23;20092;-86
2022/03/16 01:48:41;;;;;;;135.63;46.17;;;6.60;99.90;;;;;;6090813;23;20406;-85
2022/03/16 01:51:29;;;;;;;134.27;45.15;;;6.60;99.90;;;;;;6089140;23;20102;-86
2022/03/16 01:54:18;;;;;;;150.93;46.22;;;6.50;99.90;;;;;;6088462;23;20030;-86
2022/03/16 01:57:15;;;;;;;132.75;44.90;;;6.60;99.90;;;;;;6090344;23;20034;-85
2022/03/16 02:00:07;;;;;;;115.10;41.13;;;6.50;99.90;;;;;;6088625;23;20041;-86
2022/03/16 02:02:54;;;;;;;116.63;41.13;;;6.50;99.90;;;;;;6089632;23;20068;-86
2022/03/16 02:05:46;;;;;;;124.97;43.80;;;6.50;99.90;;;;;;6088656;23;20116;-86
2022/03/16 02:08:35;;;;;;;134.05;42.08;;;6.50;99.90;;;;;;6090753;23;20034;-86
2022/03/16 02:11:22;;;;;;;130.57;43.13;;;6.50;99.90;;;;;;6088869;23;20092;-86
2022/03/16 02:14:12;;;;;;;131.35;44.25;;;6.50;99.90;;;;;;6089570;23;20034;-86
2022/03/16 02:16:59;;;;;;;135.38;42.78;;;6.50;99.90;;;;;;6091381;23;20079;-86
2022/03/16 02:19:46;;;;;;;136.52;43.65;;;6.40;99.90;;;;;;6091856;23;20054;-85
2022/03/16 02:22:41;;;;;;;137.63;45.95;;;6.40;99.90;;;;;;6091834;23;20088;-85
2022/03/16 02:25:30;;;;;;;157.13;52.10;;;6.40;99.90;;;;;;6069628;23;20330;-85
2022/03/16 02:28:19;;;;;;;156.32;51.95;;;6.40;99.90;;;;;;6089421;23;20023;-85
2022/03/16 02:31:06;;;;;;;171.70;54.05;;;6.40;99.90;;;;;;6090763;23;20022;-84
2022/03/16 02:33:55;;;;;;;171.32;54.00;;;6.50;99.90;;;;;;6090337;23;20030;-85
2022/03/16 02:36:42;;;;;;;180.27;55.67;;;6.40;99.90;;;;;;6090624;23;20038;-85
2022/03/16 02:39:30;;;;;;;178.95;54.75;;;6.40;99.90;;;;;;6089315;23;20038;-84
2022/03/16 02:42:17;;;;;;;178.52;56.20;;;6.50;99.90;;;;;;6090255;23;20034;-84
2022/03/16 02:45:05;;;;;;;197.02;56.97;;;6.40;99.90;;;;;;6087934;23;20035;-85
2022/03/16 02:47:53;;;;;;;204.30;56.75;;;6.50;99.90;;;;;;6089523;23;20106;-85
2022/03/16 02:50:40;;;;;;;233.70;62.78;;;6.40;99.90;;;;;;6087840;23;20084;-85
2022/03/16 02:53:27;;;;;;;230.85;62.78;;;6.40;99.90;;;;;;6087327;23;20045;-85
2022/03/16 02:56:14;;;;;;;231.77;62.97;;;6.40;99.90;;;;;;6089408;23;20395;-85
2022/03/16 02:59:02;;;;;;;219.60;63.42;;;6.40;99.90;;;;;;6090148;23;20042;-85
2022/03/16 03:01:49;;;;;;;249.00;64.28;;;6.40;99.90;;;;;;6090261;23;20407;-86
2022/03/16 03:04:37;;;;;;;246.02;63.85;;;6.40;99.90;;;;;;6087565;23;20036;-85
2022/03/16 03:07:26;;;;;;;230.63;64.10;;;6.40;99.90;;;;;;6088882;23;20030;-85
2022/03/16 03:10:13;;;;;;;206.25;61.38;;;6.40;99.90;;;;;;6088388;23;20058;-85
2022/03/16 03:13:03;;;;;;;236.10;64.55;;;6.50;99.90;;;;;;6089493;23;20073;-84
2022/03/16 03:15:50;;;;;;;203.85;61.60;;;6.50;99.90;;;;;;6092621;23;20030;-83
2022/03/16 03:18:37;;;;;;;216.80;63.78;;;6.50;99.90;;;;;;6090488;23;20418;-84
2022/03/16 03:21:25;;;;;;;223.23;63.20;;;6.50;99.90;;;;;;6090236;23;20041;-84
2022/03/16 03:24:12;;;;;;;224.60;64.53;;;6.50;99.90;;;;;;6090613;23;20027;-83
2022/03/16 03:26:59;;;;;;;236.35;68.53;;;6.50;99.90;;;;;;6088319;23;20080;-85
2022/03/16 03:29:48;;;;;;;238.30;67.63;;;6.50;99.90;;;;;;6092190;23;20302;-85
2022/03/16 03:32:37;;;;;;;267.48;71.50;;;6.50;99.90;;;;;;6088943;23;20098;-84
2022/03/16 03:35:27;;;;;;;245.85;69.15;;;6.50;99.90;;;;;;6087996;23;20692;-84
2022/03/16 03:38:16;;;;;;;224.77;66.07;;;6.50;99.90;;;;;;6090748;23;20061;-84
2022/03/16 03:41:04;;;;;;;249.57;70.43;;;6.50;99.90;;;;;;6089472;23;20121;-85
2022/03/16 03:43:51;;;;;;;224.50;64.72;;;6.50;99.90;;;;;;6089431;23;20030;-83
2022/03/16 03:46:38;;;;;;;362.10;70.40;;;6.50;99.90;;;;;;6091133;23;20172;-85
2022/03/16 03:49:28;;;;;;;321.58;68.30;;;6.50;99.90;;;;;;6090112;23;20026;-84
2022/03/16 03:52:17;;;;;;;328.08;67.05;;;6.50;99.90;;;;;;6091286;23;20035;-84
2022/03/16 03:55:05;;;;;;;346.77;73.78;;;6.50;99.90;;;;;;6090002;23;20022;-84
2022/03/16 03:57:53;;;;;;;301.05;70.80;;;6.50;99.90;;;;;;6089854;23;20053;-84
2022/03/16 04:00:40;;;;;;;297.40;75.07;;;6.40;99.90;;;;;;6090631;23;20088;-85
2022/03/16 04:03:27;;;;;;;331.60;72.93;;;6.50;99.90;;;;;;6090471;23;20018;-84
2022/03/16 04:06:14;;;;;;;315.63;73.82;;;6.50;99.90;;;;;;6090989;23;20060;-85
2022/03/16 04:09:02;;;;;;;317.42;73.75;;;6.40;99.90;;;;;;6090421;23;20053;-84
2022/03/16 04:11:51;;;;;;;286.02;70.82;;;6.40;99.90;;;;;;6092791;23;20034;-85
2022/03/16 04:14:38;;;;;;;314.50;72.57;;;6.40;99.90;;;;;;6093353;23;20057;-83
2022/03/16 04:17:26;;;;;;;285.08;67.20;;;6.40;99.90;;;;;;6091281;23;20066;-85
2022/03/16 04:20:16;;;;;;;366.40;75.55;;;6.30;99.90;;;;;;6092707;23;20468;-84
2022/03/16 04:23:06;;;;;;;336.05;74.07;;;6.30;99.90;;;;;;6092668;23;20023;-84
2022/03/16 04:25:53;;;;;;;307.70;71.97;;;6.30;99.90;;;;;;6091056;23;20135;-83
2022/03/16 04:28:41;;;;;;;322.63;74.93;;;6.30;99.90;;;;;;6088281;23;20030;-83
2022/03/16 04:31:28;;;;;;;327.52;76.43;;;6.20;99.90;;;;;;6090857;23;20022;-85
2022/03/16 04:34:16;;;;;;;592.80;87.57;;;6.30;99.90;;;;;;6091759;23;20434;-83
2022/03/16 04:37:03;;;;;;;387.60;79.45;;;6.30;99.90;;;;;;6092419;23;20332;-84
2022/03/16 04:39:53;;;;;;;395.05;78.32;;;6.30;99.90;;;;;;6091477;23;20083;-85
2022/03/16 04:42:40;;;;;;;382.83;81.07;;;6.30;99.90;;;;;;6100258;23;20030;-84
2022/03/16 04:45:27;;;;;;;288.50;72.35;;;6.30;99.90;;;;;;6099880;23;20370;-86
2022/03/16 04:48:14;;;;;;;306.35;73.82;;;6.20;99.90;;;;;;6093764;23;20118;-87
2022/03/16 04:51:02;;;;;;;311.35;73.30;;;6.20;99.90;;;;;;6091317;23;20027;-86
2022/03/16 04:53:49;;;;;;;332.67;75.80;;;6.20;99.90;;;;;;6091750;23;20022;-86
2022/03/16 04:56:37;;;;;;;334.50;74.88;;;6.20;99.90;;;;;;6092826;23;20371;-85
2022/03/16 04:59:24;;;;;;;339.42;79.13;;;6.20;99.90;;;;;;6089896;23;20030;-85
2022/03/16 05:02:11;;;;;;;342.80;76.88;;;6.20;99.90;;;;;;6089847;23;20030;-85
2022/03/16 05:05:01;;;;;;;549.53;91.65;;;6.20;99.90;;;;;;6090084;23;20386;-86
2022/03/16 05:07:48;;;;;;;844.60;96.57;;;6.20;99.90;;;;;;6090219;23;20338;-85
2022/03/16 05:10:35;;;;;;;526.85;84.70;;;6.10;99.90;;;;;;6087908;23;20027;-84
2022/03/16 05:13:22;;;;;;;1283.32;111.45;;;6.20;99.90;;;;;;6088875;23;20106;-85
2022/03/16 05:16:09;;;;;;;902.30;91.55;;;6.20;99.90;;;;;;6086499;23;20026;-86
2022/03/16 05:19:12;;;;;;;1009.45;95.75;;;6.20;99.90;;;;;;6088049;23;20064;-85
2022/03/16 05:26:44;;;;;;;744.20;92.22;;;6.20;99.90;;;;;;6089684;23;20002;-87
2022/03/16 05:29:32;;;;;;;964.53;99.60;;;6.20;99.90;;;;;;6090365;23;20038;-85
2022/03/16 05:32:19;;;;;;;1050.88;113.63;;;6.20;99.90;;;;;;6089653;23;20037;-85
2022/03/16 05:35:07;;;;;;;924.05;97.78;;;6.20;99.90;;;;;;6089554;23;20153;-84
2022/03/16 05:37:54;;;;;;;612.33;93.72;;;6.20;99.90;;;;;;6089388;23;20031;-87
2022/03/16 05:40:42;;;;;;;511.15;90.18;;;6.30;99.90;;;;;;6090176;23;20034;-86
2022/03/16 05:43:30;;;;;;;1055.15;111.35;;;6.30;99.90;;;;;;6090550;23;20030;-84
2022/03/16 05:46:17;;;;;;;446.40;88.68;;;6.30;99.90;;;;;;6088149;23;20089;-82
2022/03/16 05:53:14;;;;;;;608.25;94.35;;;6.30;99.90;;;;;;6089227;23;20002;-84
2022/03/16 05:56:02;;;;;;;476.80;94.82;;;6.30;99.90;;;;;;6090567;23;20041;-86
2022/03/16 05:58:52;;;;;;;726.55;102.05;;;6.30;99.90;;;;;;6090608;23;20417;-84
2022/03/16 06:01:39;;;;;;;545.13;98.25;;;6.30;99.90;;;;;;6088773;23;20101;-84
2022/03/16 06:04:26;;;;;;;624.92;97.68;;;6.40;99.90;;;;;;6089750;23;20041;-84
2022/03/16 06:07:22;;;;;;;608.70;99.90;;;6.30;99.90;;;;;;6089349;23;20382;-83
2022/03/16 06:10:15;;;;;;;640.38;100.97;;;6.30;99.90;;;;;;6087970;23;20058;-85
2022/03/16 06:13:05;;;;;;;621.45;101.43;;;6.40;99.90;;;;;;6090134;23;20030;-88
2022/03/16 06:15:54;;;;;;;637.45;100.47;;;6.40;99.90;;;;;;6089523;23;20105;-91
2022/03/16 06:18:42;;;;;;;622.20;104.47;;;6.40;99.90;;;;;;6093898;23;20034;-89
2022/03/16 06:21:29;;;;;;;452.85;96.05;;;6.40;99.90;;;;;;6092690;23;20030;-87
2022/03/16 06:24:17;;;;;;;599.55;103.32;;;6.50;99.90;;;;;;6093365;23;20049;-86
2022/03/16 06:27:04;;;;;;;492.20;101.68;;;6.50;99.90;;;;;;6094166;23;20035;-89
2022/03/16 06:29:51;;;;;;;614.45;106.30;;;6.60;99.90;;;;;;6095535;23;20026;-84
2022/03/16 06:32:50;;;;;;;532.78;106.28;;;6.50;99.90;;;;;;6091679;23;20065;-86
2022/03/16 06:35:39;;;;;;;575.42;106.85;;;6.60;99.90;;;;;;6089797;23;20023;-82
2022/03/16 06:38:27;;;;;;;386.38;97.85;;;6.60;99.90;;;;;;6091939;23;20426;-85
2022/03/16 06:41:14;;;;;;;455.35;103.25;;;6.60;99.90;;;;;;6089235;23;20126;-87
2022/03/16 06:44:02;;;;;;;447.20;102.45;;;6.60;99.90;;;;;;6089522;23;20040;-86
2022/03/16 06:46:49;;;;;;;432.17;105.82;;;6.60;99.90;;;;;;6089649;23;20027;-88
2022/03/16 06:49:36;;;;;;;456.35;105.18;;;6.60;99.90;;;;;;6090593;23;20325;-87
2022/03/16 06:52:28;;;;;;;435.15;102.30;;;6.60;99.90;;;;;;6092579;23;20022;-88
2022/03/16 06:55:16;;;;;;;552.78;114.43;;;6.70;99.90;;;;;;6087359;23;20023;-87
2022/03/16 06:58:04;;;;;;;591.63;114.78;;;6.70;99.90;;;;;;6088013;23;20030;-88
2022/03/16 07:00:51;;;;;;;480.50;106.63;;;6.70;99.90;;;;;;6091696;23;20030;-84
2022/03/16 07:03:40;;;;;;;432.95;103.45;;;6.70;99.90;;;;;;6088664;23;20034;-89
2022/03/16 07:06:29;;;;;;;502.95;109.40;;;6.80;99.90;;;;;;6095671;23;20048;-88
2022/03/16 07:09:17;;;;;;;421.35;104.78;;;6.90;99.90;;;;;;6095001;23;20030;-88
2022/03/16 07:12:04;;;;;;;528.70;106.93;;;6.90;99.90;;;;;;6101039;23;20030;-87
2022/03/16 07:14:51;;;;;;;513.60;104.63;;;6.90;99.90;;;;;;6099409;23;20037;-86
2022/03/16 07:17:43;;;;;;;503.60;105.65;;;7.00;99.90;;;;;;6108093;23;20069;-88
2022/03/16 07:20:31;;;;;;;512.13;104.90;;;7.00;99.90;;;;;;6107511;23;20036;-87
2022/03/16 07:23:19;;;;;;;411.25;98.65;;;7.10;99.90;;;;;;6106575;23;20037;-87
2022/03/16 07:26:06;;;;;;;507.77;102.68;;;7.10;99.90;;;;;;6103740;23;20129;-88
2022/03/16 07:28:56;;;;;;;474.98;101.05;;;7.10;99.90;;;;;;6102048;23;20037;-88
2022/03/16 07:31:44;;;;;;;530.05;101.45;;;7.10;99.90;;;;;;6109501;23;20026;-88
2022/03/16 07:34:31;;;;;;;366.58;93.53;;;7.20;99.90;;;;;;6093106;23;20058;-88
2022/03/16 07:37:19;;;;;;;352.45;95.80;;;7.30;99.90;;;;;;6092469;23;20022;-88
2022/03/16 07:40:08;;;;;;;348.27;97.13;;;7.40;99.90;;;;;;6092048;23;20421;-86
2022/03/16 07:43:03;;;;;;;323.45;93.20;;;7.40;99.90;;;;;;6088207;23;20037;-88
2022/03/16 07:45:53;;;;;;;413.00;89.72;;;7.50;99.90;;;;;;6089501;23;20022;-86
2022/03/16 07:48:43;;;;;;;336.50;87.50;;;7.50;99.90;;;;;;6091642;23;20106;-86
2022/03/16 07:51:31;;;;;;;324.65;88.50;;;7.50;99.90;;;;;;6087828;23;20053;-87
2022/03/16 07:54:18;;;;;;;268.17;83.25;;;7.60;99.90;;;;;;6087680;23;20022;-87
2022/03/16 07:57:05;;;;;;;268.75;85.55;;;7.70;99.90;;;;;;6089437;23;20102;-87
2022/03/16 07:59:56;;;;;;;237.02;77.43;;;7.80;99.90;;;;;;6089430;23;20052;-86
2022/03/16 08:02:46;;;;;;;318.77;81.15;;;7.90;99.90;;;;;;6092466;23;20026;-88
2022/03/16 08:05:37;;;;;;;277.38;78.32;;;8.10;99.90;;;;;;6091310;23;20517;-87
2022/03/16 08:08:32;;;;;;;235.73;76.50;;;8.10;99.90;;;;;;6089488;23;20031;-86
2022/03/16 08:11:21;;;;;;;186.73;70.15;;;8.20;99.90;;;;;;6088663;23;20433;-87
2022/03/16 08:14:09;;;;;;;176.18;70.32;;;8.20;99.90;;;;;;6090808;23;20019;-87
2022/03/16 08:16:56;;;;;;;195.73;67.03;;;8.30;99.90;;;;;;6091124;23;20400;-87
2022/03/16 08:19:47;;;;;;;179.55;67.00;;;8.30;99.90;;;;;;6091829;23;20022;-87
2022/03/16 08:22:36;;;;;;;156.73;63.55;;;8.20;99.90;;;;;;6091642;23;20026;-88
2022/03/16 08:25:23;;;;;;;152.00;62.85;;;8.30;99.90;;;;;;6090990;23;20034;-88
2022/03/16 08:28:11;;;;;;;179.75;64.53;;;8.30;99.90;;;;;;6089176;23;20034;-88
2022/03/16 08:31:01;;;;;;;136.60;60.63;;;8.30;99.90;;;;;;6087131;23;20026;-88
2022/03/16 08:33:51;;;;;;;146.82;62.92;;;8.40;99.90;;;;;;6092291;23;20023;-87
2022/03/16 08:37:01;;;;;;;;;;;;;;;;;;;;;
2022/03/16 08:44:02;;;;;;;;;;;;;;;;;;;;;
2022/03/16 08:46:58;;;;;;;143.77;62.07;;;8.30;99.90;;;;;;6094045;23;20039;-87
2022/03/16 08:49:55;;;;;;;145.95;60.63;;;8.20;99.90;;;;;;6092504;23;20327;-85
2022/03/16 08:52:44;;;;;;;135.00;58.60;;;8.30;99.90;;;;;;6092335;23;20334;-84
2022/03/16 08:55:35;;;;;;;134.93;55.67;;;8.20;99.90;;;;;;6092960;23;20433;-85
2022/03/16 08:58:26;;;;;;;118.50;54.00;;;8.20;99.90;;;;;;6094131;23;20102;-85
2022/03/16 09:01:16;;;;;;;126.83;57.87;;;8.20;99.90;;;;;;6091669;23;20026;-86
2022/03/16 09:04:04;;;;;;;121.65;55.88;;;8.30;99.90;;;;;;6091761;23;20279;-88
2022/03/16 09:06:54;;;;;;;123.78;56.25;;;8.40;99.90;;;;;;6108969;23;20030;-82
2022/03/16 09:09:44;;;;;;;108.82;55.67;;;8.50;99.90;;;;;;6111308;23;20074;-88
2022/03/16 09:12:37;;;;;;;116.05;55.65;;;8.60;99.90;;;;;;6109369;23;20037;-90
2022/03/16 09:15:24;;;;;;;107.70;52.80;;;8.50;99.90;;;;;;6103629;23;20030;-87
2022/03/16 09:18:12;;;;;;;108.45;53.95;;;8.50;99.90;;;;;;6111669;23;20049;-84
2022/03/16 09:21:08;;;;;;;99.03;50.72;;;8.50;99.90;;;;;;6106130;23;20030;-89
2022/03/16 09:23:57;;;;;;;106.25;50.90;;;8.60;99.90;;;;;;6106563;23;20030;-85
2022/03/16 09:26:45;;;;;;;88.28;47.40;;;8.60;99.90;;;;;;6115656;23;20078;-84
2022/03/16 09:29:46;;;;;;;101.90;49.78;;;8.50;99.90;;;;;;6099400;23;20096;-86
2022/03/16 09:32:40;;;;;;;93.53;48.72;;;8.60;99.90;;;;;;6095742;23;20022;-85
2022/03/16 09:35:35;;;;;;;91.28;47.58;;;8.50;99.90;;;;;;6096575;23;20041;-84
2022/03/16 09:38:31;;;;;;;93.40;48.03;;;8.60;99.90;;;;;;6092142;23;20042;-88
2022/03/16 09:41:27;;;;;;;85.50;44.97;;;8.60;99.90;;;;;;6093741;23;20059;-88
2022/03/16 09:44:19;;;;;;;84.20;45.67;;;8.60;99.90;;;;;;6091383;23;20026;-89
2022/03/16 09:47:13;;;;;;;84.22;44.83;;;8.70;99.90;;;;;;6093259;23;20317;-87
2022/03/16 09:50:02;;;;;;;76.07;44.50;;;8.80;99.90;;;;;;6090370;23;20096;-88
2022/03/16 09:52:57;;;;;;;82.33;45.03;;;9.00;99.90;;;;;;6090270;23;20042;-86
2022/03/16 09:55:55;;;;;;;74.68;43.08;;;9.10;99.90;;;;;;6091537;23;20488;-88
2022/03/16 09:58:44;;;;;;;74.07;42.33;;;9.10;99.90;;;;;;6102114;23;20038;-89
2022/03/16 10:01:35;;;;;;;71.03;41.78;;;9.10;99.90;;;;;;6103853;23;20102;-84
2022/03/16 10:04:35;;;;;;;74.32;40.95;;;9.10;99.90;;;;;;6099710;23;20060;-87
2022/03/16 10:07:29;;;;;;;75.40;41.60;;;9.20;99.90;;;;;;6090840;23;20073;-86
2022/03/16 10:19:36;;;;;;;78.97;43.10;;;9.10;99.90;;;;;;6089146;23;20014;-88
2022/03/16 10:22:40;;;;;;;80.30;43.08;;;9.10;99.90;;;;;;5999102;23;20076;-89
2022/03/16 10:30:02;;;;;;;75.07;40.60;;;9.20;99.90;;;;;;6059057;23;20034;-86
2022/03/16 10:32:59;;;;;;;67.32;39.97;;;9.30;99.90;;;;;;6059751;23;20033;-84
2022/03/16 10:36:03;;;;;;;66.82;39.78;;;9.40;99.90;;;;;;6058760;23;20124;-84
2022/03/16 10:38:58;;;;;;;65.78;39.08;;;9.50;99.90;;;;;;6061003;23;20083;-85
2022/03/16 10:48:26;;;;;;;62.08;36.80;;;9.90;99.90;;;;;;6055940;23;20023;-86
2022/03/16 10:51:21;;;;;;;62.63;38.70;;;10.30;99.90;;;;;;6039067;23;20034;-88
2022/03/16 10:54:14;;;;;;;57.10;35.75;;;10.30;99.90;;;;;;6038794;23;20038;-87
2022/03/16 10:57:05;;;;;;;53.65;34.03;;;10.40;99.90;;;;;;6058685;23;20118;-88
2022/03/16 10:59:55;;;;;;;59.53;34.90;;;10.60;99.90;;;;;;6044673;23;20086;-85
2022/03/16 11:02:45;;;;;;;55.05;33.65;;;10.90;99.90;;;;;;6060367;23;20034;-89
2022/03/16 11:05:36;;;;;;;49.10;32.40;;;10.90;99.90;;;;;;6088568;23;20042;-87
2022/03/16 11:08:25;;;;;;;49.00;32.42;;;10.90;99.90;;;;;;6088764;23;20026;-84
2022/03/16 11:14:27;;;;;;;48.55;31.80;;;10.70;99.90;;;;;;6069281;23;20116;-89
2022/03/16 11:17:18;;;;;;;48.42;31.50;;;10.70;99.90;;;;;;6091020;23;20054;-85
2022/03/16 11:20:10;;;;;;;51.00;31.20;;;10.40;99.90;;;;;;6090874;23;20060;-85
2022/03/16 11:26:34;;;;;;;49.83;31.13;;;10.70;99.90;;;;;;6091291;23;20383;-85
2022/03/16 11:30:14;;;;;;;51.03;30.60;;;10.90;99.90;;;;;;6090835;23;20058;-83
2022/03/16 11:33:10;;;;;;;49.58;31.48;;;11.20;99.90;;;;;;6003371;23;20126;-85
2022/03/16 11:35:57;;;;;;;43.97;28.65;;;11.70;99.90;;;;;;6005893;23;20126;-87
2022/03/16 11:38:46;;;;;;;43.65;29.00;;;12.30;99.90;;;;;;6093511;23;20026;-89
2022/03/16 11:41:33;;;;;;;41.15;27.23;;;13.10;99.90;;;;;;6090597;23;20026;-87
2022/03/16 11:44:26;;;;;;;37.75;25.75;;;13.40;99.90;;;;;;6090784;23;20034;-88
2022/03/16 11:47:22;;;;;;;39.28;26.38;;;13.20;99.90;;;;;;6091449;23;20068;-88
2022/03/16 11:50:20;;;;;;;35.50;25.25;;;13.70;99.90;;;;;;6092007;23;20033;-87
2022/03/16 11:53:13;;;;;;;37.83;25.33;;;13.80;99.90;;;;;;6091015;23;20037;-83
2022/03/16 11:56:17;;;;;;;;;;;13.70;99.90;;;;;;6090028;23;20040;-83
2022/03/16 11:59:17;;;;;;;35.35;24.70;;;13.30;99.90;;;;;;6091739;23;19983;-84
2022/03/16 12:02:22;;;;;;;38.08;24.65;;;12.70;99.90;;;;;;6089384;23;20041;-83
2022/03/16 12:05:12;;;;;;;39.03;25.50;;;12.30;99.90;;;;;;6090951;23;20444;-83
2022/03/16 12:08:16;;;;;;;38.33;25.90;;;12.00;99.90;;;;;;6090643;23;20096;-84
2022/03/16 12:14:12;;;;;;;38.92;26.70;;;12.00;99.90;;;;;;6092129;23;20023;-84
2022/03/16 12:17:19;;;;;;;39.00;25.50;;;12.00;99.90;;;;;;6091578;23;20038;-84
2022/03/16 12:20:23;;;;;;;35.83;24.52;;;12.20;99.90;;;;;;6089777;23;20050;-86
2022/03/16 12:23:16;;;;;;;36.65;24.23;;;12.20;99.90;;;;;;6101136;23;20053;-91
2022/03/16 12:26:07;;;;;;;32.95;23.17;;;12.30;99.90;;;;;;6099163;23;20077;-85
2022/03/16 12:29:06;;;;;;;33.70;22.40;;;12.30;99.90;;;;;;6098956;23;20436;-87
2022/03/16 12:31:57;;;;;;;35.47;23.02;;;12.20;99.90;;;;;;6095409;23;20117;-87
2022/03/16 12:34:50;;;;;;;33.10;22.13;;;12.30;99.90;;;;;;6096798;23;20096;-86
2022/03/16 12:37:49;;;;;;;31.80;21.33;;;12.50;99.90;;;;;;6095623;23;20026;-88
2022/03/16 12:43:46;;;;;;;32.33;21.77;;;12.50;99.90;;;;;;6096145;23;20050;-87
2022/03/16 12:46:37;;;;;;;30.33;20.90;;;12.60;99.90;;;;;;6096310;23;20027;-86
2022/03/16 12:49:26;;;;;;;30.30;21.20;;;12.80;99.90;;;;;;6094081;23;20090;-87
2022/03/16 12:52:14;;;;;;;30.00;22.00;;;13.00;99.90;;;;;;6097608;23;20247;-88
2022/03/16 12:55:15;;;;;;;31.98;21.98;;;12.90;99.90;;;;;;6101369;23;20038;-89
2022/03/16 12:58:04;;;;;;;26.95;20.00;;;13.00;99.90;;;;;;6097915;23;20129;-88
2022/03/16 13:00:59;;;;;;;30.15;22.25;;;13.10;99.90;;;;;;6096841;23;20095;-90
2022/03/16 13:03:49;;;;;;;32.78;22.40;;;13.20;99.90;;;;;;6100821;23;20038;-87
2022/03/16 13:06:37;;;;;;;33.38;22.85;;;13.50;99.90;;;;;;6093674;23;20418;-86
2022/03/16 13:09:29;;;;;;;31.80;21.30;;;13.20;99.90;;;;;;6093249;23;20098;-86
2022/03/16 13:12:23;;;;;;;28.98;21.42;;;13.20;99.90;;;;;;6094898;23;20101;-88
2022/03/16 13:15:11;;;;;;;30.02;20.45;;;13.10;99.90;;;;;;6094784;23;20109;-88
2022/03/16 13:18:01;;;;;;;27.13;19.65;;;13.30;99.90;;;;;;6095500;23;20022;-87
2022/03/16 13:20:51;;;;;;;29.30;20.17;;;13.30;99.90;;;;;;6095911;23;20314;-86
2022/03/16 13:23:40;;;;;;;30.67;21.48;;;13.40;99.90;;;;;;6092985;23;20096;-86
2022/03/16 13:26:30;;;;;;;28.83;19.98;;;13.30;99.90;;;;;;6091151;23;20022;-84
2022/03/16 13:29:20;;;;;;;27.42;16.65;;;13.90;99.90;;;;;;6096022;23;20042;-90
2022/03/16 13:32:13;;;;;;;21.35;16.38;;;14.50;99.90;;;;;;6095511;23;20061;-88
2022/03/16 13:35:28;;;;;;;21.13;15.40;;;14.90;99.90;;;;;;6093700;23;20345;-86
2022/03/16 13:38:30;;;;;;;19.63;15.10;;;15.10;99.90;;;;;;6090832;23;20026;-90
2022/03/16 13:41:20;;;;;;;19.77;12.98;;;15.30;1.00;;;;;;6089694;23;20030;-89
2022/03/16 13:44:08;;;;;;;18.95;14.55;;;15.60;1.00;;;;;;6094684;23;20034;-88
2022/03/16 13:47:01;;;;;;;19.35;13.77;;;15.70;1.00;;;;;;6092277;23;20068;-89
2022/03/16 13:49:55;;;;;;;18.17;14.45;;;15.70;99.90;;;;;;6093845;23;20167;-89
2022/03/16 13:52:47;;;;;;;23.25;15.68;;;15.50;99.90;;;;;;6090780;23;20036;-85
2022/03/16 13:55:39;;;;;;;21.40;14.73;;;15.00;99.90;;;;;;6088752;23;20023;-87
2022/03/16 13:58:27;;;;;;;23.33;16.45;;;14.90;1.00;;;;;;6091672;23;20022;-87
2022/03/16 14:01:24;;;;;;;22.92;16.00;;;14.60;99.90;;;;;;6090509;23;20030;-87
2022/03/16 14:04:27;;;;;;;24.75;17.20;;;14.50;1.00;;;;;;6093487;23;20096;-90
2022/03/16 14:07:29;;;;;;;25.55;17.98;;;14.50;10.90;;;;;;6099431;23;20038;-90
2022/03/16 14:10:25;;;;;;;26.92;18.15;;;14.30;1.00;;;;;;6104501;23;20350;-87
2022/03/16 14:13:12;;;;;;;;;;;14.00;99.90;;;;;;6106292;23;20026;-86
2022/03/16 14:16:14;;;;;;;24.63;18.83;;;14.10;99.90;;;;;;6108048;23;19917;-86
2022/03/16 14:19:27;;;;;;;27.02;18.90;;;14.00;99.90;;;;;;6110009;23;20097;-88
2022/03/16 14:22:19;;;;;;;28.23;19.08;;;13.70;99.90;;;;;;6105507;23;20101;-87
2022/03/16 14:25:48;;;;;;;;;;;;;;;;;;;;;
2022/03/16 14:28:38;;;;;;;25.48;19.35;;;13.00;99.90;;;;;;6095996;23;20025;-89
2022/03/16 14:31:28;;;;;;;29.08;18.85;;;12.90;99.90;;;;;;6109845;23;20026;-86
2022/03/16 14:34:18;;;;;;;25.80;18.15;;;12.90;99.90;;;;;;6104538;23;20038;-90
2022/03/16 14:37:20;;;;;;;25.65;19.45;;;13.10;99.90;;;;;;6103613;23;20048;-89
2022/03/16 14:40:18;;;;;;;30.23;17.75;;;13.30;99.90;;;;;;6100006;23;20027;-91
2022/03/16 14:43:17;;;;;;;24.50;18.65;;;13.30;99.90;;;;;;6102273;23;20018;-88
2022/03/16 14:46:15;;;;;;;25.38;17.90;;;13.20;99.90;;;;;;6103729;23;20031;-89
2022/03/16 14:49:06;;;;;;;27.98;18.00;;;12.90;99.90;;;;;;6100336;23;20018;-91
2022/03/16 14:51:58;;;;;;;25.15;18.42;;;12.60;99.90;;;;;;6105410;23;20026;-89
2022/03/16 14:54:58;;;;;;;;;;;;;;;;;;;;;
2022/03/16 14:58:07;;;;;;;29.77;18.38;;;12.50;99.90;;;;;;6093387;23;20054;-88
2022/03/16 15:01:16;;;;;;;26.63;18.33;;;12.40;99.90;;;;;;6098286;23;20030;-89
2022/03/16 15:04:10;;;;;;;27.08;18.08;;;12.40;99.90;;;;;;6100945;23;20030;-90
2022/03/16 15:07:03;;;;;;;28.80;18.50;;;12.30;99.90;;;;;;6099252;23;20026;-90
2022/03/16 15:09:57;;;;;;;26.20;18.17;;;12.30;99.90;;;;;;6096873;23;20022;-90
2022/03/16 15:13:06;;;;;;;31.73;18.35;;;12.30;99.90;;;;;;6084787;23;20031;-88
2022/03/16 15:16:01;;;;;;;37.38;19.90;;;12.10;99.90;;;;;;6098847;23;20030;-88
2022/03/16 15:18:49;;;;;;;27.13;18.40;;;11.90;99.90;;;;;;6106034;23;20030;-90
2022/03/16 15:21:39;;;;;;;28.73;19.77;;;11.90;99.90;;;;;;6103903;23;20030;-89